Time;durP1;ratioP1;P1;durP2;ratioP2;P2;SDS_P1;SDS_P2;PMS_P1;PMS_P2;Temp;Humidity;BMP_temperature;BMP_pressure;BME280_temperature;BME280_humidity;BME280_pressure;Samples;Min_cycle;Max_cycle;Signal;HPM_P1;HPM_P2
2023/03/14 00:01:10;;;;;;;1999.90;999.90;;;10.10;99.90;;;;;;5072327;28;20451;-69
2023/03/14 00:03:37;;;;;;;1999.90;999.90;;;10.10;99.90;;;;;;5072223;28;20457;-70
2023/03/14 00:06:04;;;;;;;1999.90;999.90;;;10.10;99.90;;;;;;5072303;28;20836;-68
2023/03/14 00:08:32;;;;;;;1999.90;999.90;;;10.10;99.90;;;;;;5073414;28;20435;-69
2023/03/14 00:10:59;;;;;;;1999.90;999.90;;;10.20;99.90;;;;;;5072461;28;20451;-69
2023/03/14 00:13:26;;;;;;;1999.90;999.90;;;10.10;99.90;;;;;;5072504;28;20447;-69
2023/03/14 00:15:52;;;;;;;1999.90;999.90;;;10.10;99.90;;;;;;5072779;28;20497;-69
2023/03/14 00:18:20;;;;;;;1999.90;999.90;;;10.20;99.90;;;;;;5073421;28;20453;-69
2023/03/14 00:20:46;;;;;;;1999.90;999.90;;;10.20;99.90;;;;;;5073179;28;20501;-70
2023/03/14 00:23:13;;;;;;;1999.90;999.90;;;10.20;99.90;;;;;;5072393;28;20455;-70
2023/03/14 00:25:41;;;;;;;1999.90;999.90;;;10.20;99.90;;;;;;5072648;28;20443;-70
2023/03/14 00:28:08;;;;;;;1999.90;999.90;;;10.20;99.90;;;;;;5072312;28;20451;-69
2023/03/14 00:30:37;;;;;;;1999.90;999.90;;;10.20;99.90;;;;;;5072721;28;20450;-70
2023/03/14 00:33:04;;;;;;;1999.90;999.90;;;10.20;99.90;;;;;;5071821;28;20450;-70
2023/03/14 00:35:31;;;;;;;1999.90;999.90;;;10.20;99.90;;;;;;5072208;28;20486;-69
2023/03/14 00:37:58;;;;;;;1999.90;999.90;;;10.20;99.90;;;;;;5072354;28;20449;-70
2023/03/14 00:40:24;;;;;;;1999.90;999.90;;;10.20;99.90;;;;;;5071808;28;20457;-69
2023/03/14 00:42:52;;;;;;;1999.90;999.90;;;10.20;99.90;;;;;;5071879;28;20447;-70
2023/03/14 00:45:19;;;;;;;1999.90;999.90;;;10.20;99.90;;;;;;5072017;28;20450;-70
2023/03/14 00:47:46;;;;;;;1999.90;999.90;;;10.30;99.90;;;;;;5072100;28;20463;-69
2023/03/14 00:50:13;;;;;;;1999.90;999.90;;;10.30;99.90;;;;;;5072032;28;20455;-70
2023/03/14 00:52:40;;;;;;;1999.90;999.90;;;10.20;99.90;;;;;;5071618;28;20819;-69
2023/03/14 00:55:07;;;;;;;1999.90;999.90;;;10.30;99.90;;;;;;5071499;28;20485;-70
2023/03/14 00:57:34;;;;;;;1999.90;999.90;;;10.30;99.90;;;;;;5071677;28;20474;-69
2023/03/14 01:00:05;;;;;;;1999.90;999.90;;;10.30;99.90;;;;;;5071717;28;20459;-70
2023/03/14 01:02:32;;;;;;;1999.90;999.90;;;10.20;99.90;;;;;;5071309;28;20508;-70
2023/03/14 01:04:59;;;;;;;1999.90;999.90;;;10.30;99.90;;;;;;5071792;28;20457;-70
2023/03/14 01:07:26;;;;;;;1999.90;999.90;;;10.30;99.90;;;;;;5071919;28;20482;-70
2023/03/14 01:09:53;;;;;;;1999.90;999.90;;;10.30;99.90;;;;;;5071314;28;20491;-69
2023/03/14 01:12:19;;;;;;;1999.90;999.90;;;10.30;99.90;;;;;;5072023;28;20451;-70
2023/03/14 01:14:46;;;;;;;1999.90;999.90;;;10.30;99.90;;;;;;5073372;28;20483;-70
2023/03/14 01:17:14;;;;;;;1999.90;999.90;;;10.30;99.90;;;;;;5073967;28;20844;-70
2023/03/14 01:19:41;;;;;;;1999.90;999.90;;;10.30;99.90;;;;;;5074970;28;20443;-69
2023/03/14 01:22:08;;;;;;;1999.90;999.90;;;10.30;99.90;;;;;;5073552;28;20455;-69
2023/03/14 01:24:35;;;;;;;1999.90;999.90;;;10.30;99.90;;;;;;5071880;28;20448;-70
2023/03/14 01:27:01;;;;;;;1999.90;999.90;;;10.40;99.90;;;;;;5071459;28;20467;-70
2023/03/14 01:29:28;;;;;;;1999.90;999.90;;;10.40;99.90;;;;;;5071297;28;20458;-69
2023/03/14 01:31:55;;;;;;;1999.90;999.90;;;10.40;99.90;;;;;;5071468;28;20450;-69
2023/03/14 01:34:23;;;;;;;1999.90;999.90;;;10.40;99.90;;;;;;5070849;28;20443;-70
2023/03/14 01:36:50;;;;;;;1999.90;999.90;;;10.40;99.90;;;;;;5070767;28;20481;-69
2023/03/14 01:39:16;;;;;;;1999.90;999.90;;;10.40;99.90;;;;;;5071386;28;20452;-69
2023/03/14 01:41:43;;;;;;;1999.90;999.90;;;10.40;99.90;;;;;;5071958;28;20457;-69
2023/03/14 01:44:11;;;;;;;1999.90;999.90;;;10.30;99.90;;;;;;5071003;28;20481;-70
2023/03/14 01:46:40;;;;;;;1999.90;999.90;;;10.30;99.90;;;;;;5074175;28;20459;-69
2023/03/14 01:49:23;;;;;;;1999.90;999.90;;;10.30;99.90;;;;;;5080378;28;20454;-69
2023/03/14 01:51:56;;;;;;;1999.90;999.90;;;10.30;99.90;;;;;;5071618;28;20447;-70
2023/03/14 01:54:26;;;;;;;1999.90;999.90;;;10.20;99.90;;;;;;5069979;28;20466;-69
2023/03/14 01:56:58;;;;;;;1999.90;999.90;;;10.20;99.90;;;;;;5070718;28;20467;-70
2023/03/14 01:59:26;;;;;;;1999.90;999.90;;;10.20;99.90;;;;;;5070924;28;20809;-69
2023/03/14 02:01:55;;;;;;;1999.90;999.90;;;10.10;99.90;;;;;;5070946;28;20462;-69
2023/03/14 02:04:24;;;;;;;1999.90;999.90;;;10.20;99.90;;;;;;5070440;28;20479;-69
2023/03/14 02:06:55;;;;;;;1999.90;999.90;;;10.10;99.90;;;;;;5070892;28;20463;-70
2023/03/14 02:09:22;;;;;;;1999.90;999.90;;;10.10;99.90;;;;;;5070779;28;20443;-69
2023/03/14 02:11:50;;;;;;;1999.90;999.90;;;10.10;99.90;;;;;;5070423;28;20454;-70
2023/03/14 02:14:27;;;;;;;1999.90;999.90;;;10.10;99.90;;;;;;5070134;28;20953;-69
2023/03/14 02:16:54;;;;;;;1999.90;999.90;;;10.20;99.90;;;;;;5071009;28;20466;-68
2023/03/14 02:19:32;;;;;;;1999.90;999.90;;;10.20;99.90;;;;;;5070609;28;20458;-69
2023/03/14 02:22:06;;;;;;;1999.90;999.90;;;10.20;99.90;;;;;;5070699;28;20448;-70
2023/03/14 02:24:41;;;;;;;1999.90;999.90;;;10.10;99.90;;;;;;5070328;28;20979;-70
2023/03/14 02:27:11;;;;;;;1999.90;999.90;;;10.10;99.90;;;;;;5070647;28;20473;-69
2023/03/14 02:29:44;;;;;;;1999.90;999.90;;;10.10;99.90;;;;;;5070632;28;20450;-69
2023/03/14 02:32:12;;;;;;;1999.90;999.90;;;10.20;99.90;;;;;;5070235;28;20447;-70
2023/03/14 02:34:40;;;;;;;1999.90;999.90;;;10.10;99.90;;;;;;5070002;28;20964;-69
2023/03/14 02:37:07;;;;;;;1999.90;999.90;;;10.10;99.90;;;;;;5070213;28;20482;-69
2023/03/14 02:39:38;;;;;;;1999.90;999.90;;;10.10;99.90;;;;;;5070626;28;20529;-69
2023/03/14 02:42:05;;;;;;;1999.90;999.90;;;10.10;99.90;;;;;;5070514;28;20835;-70
2023/03/14 02:44:35;;;;;;;1999.90;999.90;;;10.10;99.90;;;;;;5070079;28;20447;-69
2023/03/14 02:47:02;;;;;;;1999.90;999.90;;;10.20;99.90;;;;;;5070420;28;20853;-69
2023/03/14 02:49:32;;;;;;;1999.90;999.90;;;10.20;99.90;;;;;;5070251;28;20447;-69
2023/03/14 02:51:59;;;;;;;1999.90;999.90;;;10.20;99.90;;;;;;5070629;28;20451;-69
2023/03/14 02:54:26;;;;;;;1999.90;999.90;;;10.20;99.90;;;;;;5070219;28;20451;-70
2023/03/14 02:56:53;;;;;;;1999.90;999.90;;;10.10;99.90;;;;;;5070596;28;20490;-69
2023/03/14 02:59:19;;;;;;;1999.90;999.90;;;10.10;99.90;;;;;;5070952;28;20454;-68
2023/03/14 03:01:47;;;;;;;1999.90;999.90;;;10.10;99.90;;;;;;5070301;28;20454;-68
2023/03/14 03:04:14;;;;;;;1999.90;999.90;;;10.10;99.90;;;;;;5070941;28;20447;-69
2023/03/14 03:06:42;;;;;;;1999.90;999.90;;;10.10;99.90;;;;;;5073534;28;20988;-70
2023/03/14 03:09:09;;;;;;;1999.90;999.90;;;10.10;99.90;;;;;;5074077;28;20450;-69
2023/03/14 03:11:36;;;;;;;1999.90;999.90;;;10.10;99.90;;;;;;5073702;28;20831;-71
2023/03/14 03:14:02;;;;;;;1999.90;999.90;;;10.00;99.90;;;;;;5073705;28;20841;-69
2023/03/14 03:16:29;;;;;;;1999.90;999.90;;;10.00;99.90;;;;;;5073474;28;20494;-68
2023/03/14 03:18:57;;;;;;;1999.90;999.90;;;10.10;99.90;;;;;;5073602;28;20526;-68
2023/03/14 03:21:24;;;;;;;1999.90;999.90;;;10.10;99.90;;;;;;5073604;28;20447;-70
2023/03/14 03:23:51;;;;;;;1999.90;999.90;;;10.00;99.90;;;;;;5073474;28;20439;-70
2023/03/14 03:26:18;;;;;;;1999.90;999.90;;;10.00;99.90;;;;;;5073825;28;20463;-70
2023/03/14 03:28:45;;;;;;;1999.90;999.90;;;10.00;99.90;;;;;;5073498;28;20439;-69
2023/03/14 03:31:12;;;;;;;1999.90;999.90;;;10.00;99.90;;;;;;5073184;28;20443;-69
2023/03/14 03:33:39;;;;;;;1999.90;999.90;;;10.10;99.90;;;;;;5073170;28;20470;-67
2023/03/14 03:36:09;;;;;;;1999.90;999.90;;;10.10;99.90;;;;;;5073264;28;20482;-70
2023/03/14 03:38:36;;;;;;;1999.90;999.90;;;10.10;99.90;;;;;;5073477;28;20937;-69
2023/03/14 03:41:04;;;;;;;1999.90;999.90;;;10.10;99.90;;;;;;5073621;28;20458;-69
2023/03/14 03:43:31;;;;;;;1999.90;999.90;;;10.10;99.90;;;;;;5073028;28;20446;-69
2023/03/14 03:45:57;;;;;;;1999.90;999.90;;;10.20;99.90;;;;;;5073237;28;20475;-70
2023/03/14 03:48:24;;;;;;;1999.90;999.90;;;10.20;99.90;;;;;;5073277;28;20443;-70
2023/03/14 03:50:51;;;;;;;1999.90;999.90;;;10.20;99.90;;;;;;5072885;28;20449;-69
2023/03/14 03:53:19;;;;;;;1999.90;999.90;;;10.20;99.90;;;;;;5073182;28;20454;-70
2023/03/14 03:55:46;;;;;;;1999.90;999.90;;;10.10;99.90;;;;;;5072677;28;21004;-69
2023/03/14 03:58:13;;;;;;;1999.90;999.90;;;10.10;99.90;;;;;;5073325;28;20458;-70
2023/03/14 04:00:40;;;;;;;1999.90;999.90;;;10.10;99.90;;;;;;5061797;28;20440;-69
2023/03/14 04:03:07;;;;;;;1999.90;999.90;;;10.10;99.90;;;;;;5053232;28;20447;-67
2023/03/14 04:05:34;;;;;;;1999.90;999.90;;;10.00;99.90;;;;;;5053444;28;20491;-70
2023/03/14 04:08:01;;;;;;;1999.90;999.90;;;10.00;99.90;;;;;;5052930;28;20501;-69
2023/03/14 04:10:30;;;;;;;1999.90;999.90;;;10.10;99.90;;;;;;5053276;28;20544;-69
2023/03/14 04:12:57;;;;;;;1999.90;999.90;;;10.10;99.90;;;;;;5052424;28;20475;-70
2023/03/14 04:15:23;;;;;;;1999.90;999.90;;;10.00;99.90;;;;;;5053044;28;20479;-70
2023/03/14 04:17:50;;;;;;;1999.90;999.90;;;9.90;99.90;;;;;;5052528;28;20483;-68
2023/03/14 04:20:17;;;;;;;1999.90;999.90;;;9.90;99.90;;;;;;5052612;28;20459;-69
2023/03/14 04:22:44;;;;;;;1999.90;999.90;;;9.90;99.90;;;;;;5052238;28;20451;-69
2023/03/14 04:25:11;;;;;;;1999.90;999.90;;;9.90;99.90;;;;;;5052904;28;20549;-70
2023/03/14 04:27:39;;;;;;;1999.90;999.90;;;10.00;99.90;;;;;;5052504;28;20483;-71
2023/03/14 04:30:07;;;;;;;1999.90;999.90;;;10.00;99.90;;;;;;5052523;28;20840;-70
2023/03/14 04:32:33;;;;;;;1999.90;999.90;;;10.00;99.90;;;;;;5052728;28;20459;-69
2023/03/14 04:35:00;;;;;;;1999.90;999.90;;;9.90;99.90;;;;;;5052164;28;20452;-70
2023/03/14 04:37:27;;;;;;;1999.90;999.90;;;9.90;99.90;;;;;;5052349;28;20464;-70
2023/03/14 04:39:54;;;;;;;1999.90;999.90;;;9.90;99.90;;;;;;5051922;28;20435;-70
2023/03/14 04:42:20;;;;;;;1999.90;999.90;;;9.90;99.90;;;;;;5052304;28;20813;-69
2023/03/14 04:44:49;;;;;;;1999.90;999.90;;;9.80;99.90;;;;;;5052014;28;20969;-70
2023/03/14 04:47:16;;;;;;;1999.90;999.90;;;9.80;99.90;;;;;;5051696;28;20468;-69
2023/03/14 04:49:43;;;;;;;1999.90;999.90;;;9.80;99.90;;;;;;5052132;28;20459;-68
2023/03/14 04:52:10;;;;;;;1999.90;999.90;;;9.80;99.90;;;;;;5051674;28;20451;-68
2023/03/14 04:54:37;;;;;;;1999.90;999.90;;;9.80;99.90;;;;;;5051580;28;20456;-70
2023/03/14 04:57:04;;;;;;;1999.90;999.90;;;9.70;99.90;;;;;;5051288;28;20486;-70
2023/03/14 04:59:30;;;;;;;1999.90;999.90;;;9.70;99.90;;;;;;5052034;28;20452;-70
2023/03/14 05:01:59;;;;;;;1999.90;999.90;;;9.70;99.90;;;;;;5052102;28;20455;-70
2023/03/14 05:04:25;;;;;;;1999.90;999.90;;;9.70;99.90;;;;;;5051297;28;20444;-69
2023/03/14 05:06:52;;;;;;;1999.90;999.90;;;9.60;99.90;;;;;;5051845;28;20464;-70
2023/03/14 05:09:19;;;;;;;1999.90;999.90;;;9.60;99.90;;;;;;5051666;28;20514;-68
2023/03/14 05:11:46;;;;;;;1999.90;999.90;;;9.60;99.90;;;;;;5051776;28;21042;-69
2023/03/14 05:14:13;;;;;;;1999.90;999.90;;;9.50;99.90;;;;;;5051259;28;20456;-69
2023/03/14 05:16:39;;;;;;;1999.90;999.90;;;9.50;99.90;;;;;;5051606;28;20488;-69
2023/03/14 05:19:07;;;;;;;1999.90;999.90;;;9.50;99.90;;;;;;5051577;28;20471;-69
2023/03/14 05:21:34;;;;;;;1999.90;999.90;;;9.50;99.90;;;;;;5051500;28;20452;-70
2023/03/14 05:24:01;;;;;;;1999.90;999.90;;;9.60;99.90;;;;;;5051330;28;20444;-68
2023/03/14 05:26:28;;;;;;;1999.90;999.90;;;9.50;99.90;;;;;;5051324;28;20475;-69
2023/03/14 05:28:54;;;;;;;1999.90;999.90;;;9.50;99.90;;;;;;5050199;28;20443;-69
2023/03/14 05:31:22;;;;;;;1999.90;999.90;;;9.50;99.90;;;;;;5050948;28;20447;-69
2023/03/14 05:33:48;;;;;;;1999.90;999.90;;;9.40;99.90;;;;;;5051326;28;20837;-68
2023/03/14 05:36:16;;;;;;;1999.90;999.90;;;9.40;99.90;;;;;;5051119;28;20490;-68
2023/03/14 05:38:43;;;;;;;1999.90;999.90;;;9.40;99.90;;;;;;5051857;28;20454;-68
2023/03/14 05:41:10;;;;;;;1999.90;999.90;;;9.30;99.90;;;;;;5051777;28;20439;-68
2023/03/14 05:43:37;;;;;;;1999.90;999.90;;;9.20;99.90;;;;;;5050928;28;20450;-69
2023/03/14 05:46:04;;;;;;;1999.90;999.90;;;9.10;99.90;;;;;;5051492;28;20463;-67
2023/03/14 05:48:30;;;;;;;1999.90;999.90;;;9.20;99.90;;;;;;5051346;28;20859;-68
2023/03/14 05:50:59;;;;;;;1999.90;999.90;;;9.30;99.90;;;;;;5051376;28;20946;-68
2023/03/14 05:53:28;;;;;;;1999.90;999.90;;;9.30;99.90;;;;;;5050831;28;20878;-67
2023/03/14 05:55:56;;;;;;;1999.90;999.90;;;9.30;99.90;;;;;;5050871;28;20575;-67
2023/03/14 05:58:23;;;;;;;1999.90;999.90;;;9.30;99.90;;;;;;5050994;28;20452;-68
2023/03/14 06:00:51;;;;;;;1999.90;999.90;;;9.40;99.90;;;;;;5050988;28;20452;-68
2023/03/14 06:03:18;;;;;;;1999.90;999.90;;;9.50;99.90;;;;;;5050860;28;20448;-67
2023/03/14 06:05:44;;;;;;;1999.90;999.90;;;9.60;99.90;;;;;;5050959;28;20934;-68
2023/03/14 06:08:11;;;;;;;1999.90;999.90;;;9.70;99.90;;;;;;5051357;28;20448;-67
2023/03/14 06:10:39;;;;;;;1999.90;999.90;;;9.80;99.90;;;;;;5051539;28;20451;-66
2023/03/14 06:13:06;;;;;;;1999.90;999.90;;;9.70;99.90;;;;;;5050779;28;20451;-67
2023/03/14 06:15:35;;;;;;;1999.90;999.90;;;9.70;99.90;;;;;;5050547;28;20444;-66
2023/03/14 06:18:02;;;;;;;1999.90;999.90;;;9.70;99.90;;;;;;5050467;28;20953;-66
2023/03/14 06:20:28;;;;;;;1999.90;999.90;;;9.70;99.90;;;;;;5051197;28;20459;-66
2023/03/14 06:22:55;;;;;;;1999.90;999.90;;;9.60;99.90;;;;;;5049344;28;20459;-66
2023/03/14 06:25:22;;;;;;;1999.90;999.90;;;9.50;99.90;;;;;;5050327;28;20444;-67
2023/03/14 06:27:50;;;;;;;1999.90;999.90;;;9.50;99.90;;;;;;5050929;28;20471;-65
2023/03/14 06:30:17;;;;;;;1999.90;999.90;;;9.50;99.90;;;;;;5051889;28;20448;-67
2023/03/14 06:32:44;;;;;;;1999.90;999.90;;;9.50;99.90;;;;;;5052042;28;20448;-67
2023/03/14 06:35:11;;;;;;;1999.90;999.90;;;9.50;99.90;;;;;;5052557;28;20452;-66
2023/03/14 06:37:38;;;;;;;1999.90;999.90;;;9.60;99.90;;;;;;5052598;28;20496;-68
2023/03/14 06:40:07;;;;;;;1999.90;999.90;;;9.50;99.90;;;;;;5051022;28;20455;-65
2023/03/14 06:42:34;;;;;;;1999.90;999.90;;;9.50;99.90;;;;;;5050743;28;20562;-67
2023/03/14 06:45:02;;;;;;;1999.90;999.90;;;9.50;99.90;;;;;;5050430;28;20452;-66
2023/03/14 06:47:29;;;;;;;1999.90;999.90;;;9.50;99.90;;;;;;5051101;28;20468;-66
2023/03/14 06:49:56;;;;;;;1999.90;999.90;;;9.50;99.90;;;;;;5050459;28;20459;-66
2023/03/14 06:52:23;;;;;;;1999.90;999.90;;;9.60;99.90;;;;;;5050282;28;20450;-66
2023/03/14 06:54:49;;;;;;;1999.90;999.90;;;9.60;99.90;;;;;;5050209;28;20492;-66
2023/03/14 06:57:16;;;;;;;1999.90;999.90;;;9.60;99.90;;;;;;5050695;28;20480;-67
2023/03/14 06:59:43;;;;;;;1999.90;999.90;;;9.70;99.90;;;;;;5050727;28;20452;-67
2023/03/14 07:02:12;;;;;;;1999.90;999.90;;;9.70;99.90;;;;;;5050278;28;20455;-68
2023/03/14 07:04:39;;;;;;;1999.90;999.90;;;9.80;99.90;;;;;;5050247;28;20448;-67
2023/03/14 07:07:06;;;;;;;1999.90;999.90;;;9.90;99.90;;;;;;5050227;28;21076;-66
2023/03/14 07:09:33;;;;;;;1999.90;999.90;;;10.00;99.90;;;;;;5050298;28;20505;-67
2023/03/14 07:12:00;;;;;;;1999.90;999.90;;;10.20;99.90;;;;;;5050267;28;20448;-68
2023/03/14 07:14:27;;;;;;;1999.90;999.90;;;10.50;99.90;;;;;;5050475;28;20455;-67
2023/03/14 07:16:53;;;;;;;1999.90;999.90;;;10.50;99.90;;;;;;5050080;28;21009;-67
2023/03/14 07:19:21;;;;;;;1999.90;999.90;;;10.70;99.90;;;;;;5050319;28;20832;-67
2023/03/14 07:21:48;;;;;;;1999.90;999.90;;;10.70;99.90;;;;;;5050458;28;20827;-68
2023/03/14 07:24:15;;;;;;;1999.90;999.90;;;10.90;99.90;;;;;;5049822;28;20966;-67
2023/03/14 07:26:42;;;;;;;1999.90;999.90;;;10.90;99.90;;;;;;5050134;28;20456;-66
2023/03/14 07:29:08;;;;;;;1999.90;999.90;;;11.10;99.90;;;;;;5049901;28;20451;-66
2023/03/14 07:31:35;;;;;;;1999.90;999.90;;;11.20;99.90;;;;;;5050145;28;20448;-66
2023/03/14 07:34:02;;;;;;;1999.90;999.90;;;11.30;99.90;;;;;;5049943;28;20455;-67
2023/03/14 07:36:30;;;;;;;1999.90;999.90;;;11.30;99.90;;;;;;5049953;28;20491;-67
2023/03/14 07:38:57;;;;;;;1999.90;999.90;;;11.30;99.90;;;;;;5049982;28;20454;-67
2023/03/14 07:41:24;;;;;;;1999.90;999.90;;;11.50;99.90;;;;;;5050308;28;20440;-68
2023/03/14 07:43:51;;;;;;;1999.90;999.90;;;11.60;99.90;;;;;;5049551;28;20451;-65
2023/03/14 07:46:18;;;;;;;1999.90;999.90;;;11.70;99.90;;;;;;5050683;28;20476;-68
2023/03/14 07:48:45;;;;;;;1999.90;999.90;;;11.80;99.90;;;;;;5050120;28;20505;-67
2023/03/14 07:51:12;;;;;;;1999.90;999.90;;;12.00;99.90;;;;;;5051009;28;20444;-66
2023/03/14 07:53:40;;;;;;;1999.90;999.90;;;12.10;99.90;;;;;;5053343;28;20451;-66
2023/03/14 07:56:07;;;;;;;1999.90;999.90;;;12.10;99.90;;;;;;5053863;28;20467;-66
2023/03/14 07:58:34;;;;;;;1999.90;999.90;;;12.20;99.90;;;;;;5073374;28;20987;-67
2023/03/14 08:01:01;;;;;;;1999.90;999.90;;;12.30;99.90;;;;;;5073812;28;20821;-66
2023/03/14 08:03:28;;;;;;;1999.90;999.90;;;12.30;99.90;;;;;;5073521;28;20451;-66
2023/03/14 08:05:54;;;;;;;1999.90;999.90;;;12.20;99.90;;;;;;5073805;28;20844;-66
2023/03/14 08:08:21;;;;;;;1999.90;999.90;;;12.20;99.90;;;;;;5073561;28;20531;-66
2023/03/14 08:10:49;;;;;;;1999.90;999.90;;;12.30;99.90;;;;;;5073615;28;20455;-67
2023/03/14 08:13:16;;;;;;;1999.90;999.90;;;12.40;99.90;;;;;;5073988;28;20443;-67
2023/03/14 08:15:43;;;;;;;1999.90;999.90;;;12.40;99.90;;;;;;5073375;28;20446;-67
2023/03/14 08:18:10;;;;;;;1999.90;999.90;;;12.40;99.90;;;;;;5073074;28;20485;-68
2023/03/14 08:20:37;;;;;;;1999.90;999.90;;;12.40;99.90;;;;;;5073161;28;20447;-67
2023/03/14 08:23:04;;;;;;;1999.90;999.90;;;12.50;99.90;;;;;;5072890;28;20524;-68
2023/03/14 08:25:31;;;;;;;1999.90;999.90;;;12.60;99.90;;;;;;5073278;28;20443;-67
2023/03/14 08:27:59;;;;;;;1999.90;999.90;;;12.80;99.90;;;;;;5073113;28;20546;-67
2023/03/14 08:30:26;;;;;;;1999.90;999.90;;;12.90;99.90;;;;;;5072942;28;20447;-67
2023/03/14 08:32:53;;;;;;;1999.90;999.90;;;13.00;99.90;;;;;;5072727;28;20528;-68
2023/03/14 08:35:20;;;;;;;1999.90;999.90;;;13.30;99.90;;;;;;5072673;28;20450;-68
2023/03/14 08:37:47;;;;;;;1999.90;999.90;;;13.40;99.90;;;;;;5073198;28;20490;-68
2023/03/14 08:40:16;;;;;;;1999.90;999.90;;;13.60;99.90;;;;;;5073012;28;20520;-67
2023/03/14 08:42:44;;;;;;;1999.90;999.90;;;13.60;99.90;;;;;;5073681;28;20455;-67
2023/03/14 08:45:14;;;;;;;1999.90;999.90;;;13.40;99.90;;;;;;5074113;28;20447;-67
2023/03/14 08:47:41;;;;;;;1999.90;999.90;;;13.30;99.90;;;;;;5074222;28;20459;-68
2023/03/14 08:50:09;;;;;;;1999.90;999.90;;;13.20;99.90;;;;;;5074158;28;20453;-66
2023/03/14 08:52:37;;;;;;;1999.90;999.90;;;13.30;99.90;;;;;;5073785;28;20478;-68
2023/03/14 08:55:05;;;;;;;1999.90;999.90;;;13.30;99.90;;;;;;5074424;28;20450;-67
2023/03/14 08:57:31;;;;;;;1999.90;999.90;;;13.30;99.90;;;;;;5064103;28;20484;-67
2023/03/14 08:59:58;;;;;;;1999.90;999.90;;;13.30;99.90;;;;;;5053175;28;20441;-67
2023/03/14 09:02:27;;;;;;;1999.90;999.90;;;13.20;99.90;;;;;;5052073;28;20456;-66
2023/03/14 09:04:54;;;;;;;1999.90;999.90;;;13.40;99.90;;;;;;5053756;28;20851;-67
2023/03/14 09:07:21;;;;;;;1999.90;999.90;;;13.70;99.90;;;;;;5052788;28;20503;-66
2023/03/14 09:09:48;;;;;;;1999.90;999.90;;;13.80;99.90;;;;;;5052840;28;20531;-68
2023/03/14 09:12:15;;;;;;;1999.90;999.90;;;13.80;99.90;;;;;;5052640;28;20495;-66
2023/03/14 09:14:41;;;;;;;1999.90;999.90;;;13.80;99.90;;;;;;5069931;28;20446;-67
2023/03/14 09:17:08;;;;;;;1999.90;999.90;;;13.70;99.90;;;;;;5051236;28;20486;-67
2023/03/14 09:19:36;;;;;;;1999.90;999.90;;;13.70;99.90;;;;;;5052361;28;20451;-65
2023/03/14 09:22:03;;;;;;;1999.90;999.90;;;13.50;99.90;;;;;;5052204;28;20436;-67
2023/03/14 09:24:30;;;;;;;1999.90;999.90;;;13.30;99.90;;;;;;5051957;28;21099;-68
2023/03/14 09:26:58;;;;;;;1999.90;999.90;;;13.30;99.90;;;;;;5054303;28;20468;-67
2023/03/14 09:29:25;;;;;;;1999.90;999.90;;;13.40;99.90;;;;;;5053361;28;20444;-67
2023/03/14 09:31:52;;;;;;;1999.90;999.90;;;13.50;99.90;;;;;;5052842;28;21005;-68
2023/03/14 09:34:19;;;;;;;1999.90;999.90;;;13.50;99.90;;;;;;5052009;28;20436;-68
2023/03/14 09:36:47;;;;;;;1999.90;999.90;;;13.70;99.90;;;;;;5052584;28;21045;-68
2023/03/14 09:39:14;;;;;;;1999.90;999.90;;;13.80;99.90;;;;;;5052136;28;20440;-68
2023/03/14 09:41:44;;;;;;;1999.90;999.90;;;13.80;99.90;;;;;;5052303;28;20539;-67
2023/03/14 09:44:15;;;;;;;1999.90;999.90;;;13.90;99.90;;;;;;5049294;28;20467;-68
2023/03/14 09:46:47;;;;;;;1999.90;999.90;;;13.90;99.90;;;;;;5051045;28;20470;-67
2023/03/14 09:49:21;;;;;;;1999.90;999.90;;;14.10;99.90;;;;;;5047333;28;20476;-68
2023/03/14 09:51:53;;;;;;;1999.90;999.90;;;14.20;99.90;;;;;;5050037;28;20435;-68
2023/03/14 09:54:31;;;;;;;1999.90;999.90;;;14.20;99.90;;;;;;5052260;28;20440;-68
2023/03/14 09:56:58;;;;;;;1999.90;999.90;;;14.30;99.90;;;;;;5051881;28;20537;-68
2023/03/14 09:59:26;;;;;;;1999.90;999.90;;;14.40;99.90;;;;;;5049785;28;20451;-67
2023/03/14 10:01:53;;;;;;;1999.90;999.90;;;14.10;99.90;;;;;;5051749;28;20502;-68
2023/03/14 10:04:23;;;;;;;1999.90;999.90;;;14.00;99.90;;;;;;5051645;28;20455;-67
2023/03/14 10:06:52;;;;;;;1999.90;999.90;;;14.10;99.90;;;;;;5051800;28;20464;-67
2023/03/14 10:09:24;;;;;;;1999.90;999.90;;;14.00;99.90;;;;;;5050061;28;20464;-66
2023/03/14 10:11:54;;;;;;;1999.90;999.90;;;14.30;99.90;;;;;;5049951;28;20452;-69
2023/03/14 10:14:31;;;;;;;1999.90;999.90;;;14.20;99.90;;;;;;5049777;28;20452;-67
2023/03/14 10:17:06;;;;;;;1999.90;999.90;;;14.40;99.90;;;;;;5051332;28;20467;-68
2023/03/14 10:19:35;;;;;;;1999.90;999.90;;;14.70;99.90;;;;;;5049107;28;20436;-68
2023/03/14 10:22:04;;;;;;;1999.90;999.90;;;14.80;99.90;;;;;;5050798;28;20444;-67
2023/03/14 10:24:33;;;;;;;1999.90;999.90;;;15.10;99.90;;;;;;5048228;28;20510;-67
2023/03/14 10:27:02;;;;;;;1999.90;999.90;;;15.30;99.90;;;;;;5050339;28;20475;-68
2023/03/14 10:29:30;;;;;;;1999.90;999.90;;;15.40;99.90;;;;;;5050461;28;20436;-68
2023/03/14 10:32:01;;;;;;;1999.90;999.90;;;15.50;99.90;;;;;;5051436;28;20490;-68
2023/03/14 10:34:30;;;;;;;1999.90;999.90;;;15.70;99.90;;;;;;5048696;28;20452;-68
2023/03/14 10:37:00;;;;;;;1999.90;999.90;;;15.80;99.90;;;;;;5050117;28;20478;-68
2023/03/14 10:39:33;;;;;;;1999.90;999.90;;;15.70;99.90;;;;;;5050483;28;20451;-68
2023/03/14 10:42:07;;;;;;;1999.90;999.90;;;15.60;99.90;;;;;;5050096;28;20436;-68
2023/03/14 10:44:36;;;;;;;1999.90;999.90;;;15.40;99.90;;;;;;5050080;28;20941;-67
2023/03/14 10:47:05;;;;;;;1999.90;999.90;;;15.10;99.90;;;;;;5051453;28;20476;-68
2023/03/14 10:49:33;;;;;;;1999.90;999.90;;;15.10;99.90;;;;;;5050655;28;20441;-67
2023/03/14 10:52:16;;;;;;;1999.90;999.90;;;15.10;99.90;;;;;;5051161;28;20447;-67
2023/03/14 10:54:48;;;;;;;1999.90;999.90;;;15.10;99.90;;;;;;5050173;28;20856;-67
2023/03/14 10:57:15;;;;;;;1999.90;999.90;;;14.70;99.90;;;;;;5050445;28;20494;-67
2023/03/14 10:59:43;;;;;;;1999.90;999.90;;;14.40;99.90;;;;;;5051215;28;20443;-68
2023/03/14 11:02:37;;;;;;;1999.90;999.90;;;14.40;99.90;;;;;;5052399;28;20444;-68
2023/03/14 11:05:16;;;;;;;1999.90;999.90;;;14.30;99.90;;;;;;5049584;28;20845;-68
2023/03/14 11:07:44;;;;;;;1999.90;999.90;;;14.10;99.90;;;;;;5048569;28;20467;-67
2023/03/14 11:10:22;;;;;;;1999.90;999.90;;;14.00;99.90;;;;;;5048487;28;20440;-68
2023/03/14 11:13:09;;;;;;;1999.90;999.90;;;13.80;99.90;;;;;;5047557;28;20784;-68
2023/03/14 11:15:41;;;;;;;1999.90;999.90;;;13.60;99.90;;;;;;5048238;28;20440;-68
2023/03/14 11:18:24;;;;;;;1999.90;999.90;;;13.30;99.90;;;;;;5049342;28;20476;-68
2023/03/14 11:20:54;;;;;;;1999.90;999.90;;;13.10;99.90;;;;;;5049188;28;20439;-67
2023/03/14 11:23:23;;;;;;;1999.90;999.90;;;12.90;99.90;;;;;;5049988;28;20444;-67
2023/03/14 11:25:59;;;;;;;1999.90;999.90;;;12.90;99.90;;;;;;5047716;28;20482;-67
2023/03/14 11:28:35;;;;;;;1999.90;999.90;;;12.70;99.90;;;;;;5052534;28;20439;-67
2023/03/14 11:31:12;;;;;;;1999.90;999.90;;;12.50;99.90;;;;;;5051910;28;20451;-67
2023/03/14 11:33:47;;;;;;;1999.90;999.90;;;12.20;99.90;;;;;;5051996;28;20508;-68
2023/03/14 11:36:20;;;;;;;1999.90;999.90;;;11.90;99.90;;;;;;5053882;28;20482;-67
2023/03/14 11:38:49;;;;;;;1999.90;999.90;;;11.90;99.90;;;;;;5051549;28;20484;-67
2023/03/14 11:41:21;;;;;;;1999.90;999.90;;;11.70;99.90;;;;;;5052445;28;20456;-67
2023/03/14 11:43:53;;;;;;;1999.90;999.90;;;11.70;99.90;;;;;;5053220;28;20428;-68
2023/03/14 11:46:26;;;;;;;1999.90;999.90;;;11.70;99.90;;;;;;5053330;28;20468;-66
2023/03/14 11:49:02;;;;;;;1999.90;999.90;;;11.70;99.90;;;;;;5054635;28;20428;-68
2023/03/14 11:51:34;;;;;;;1999.90;999.90;;;11.70;99.90;;;;;;5048833;28;20454;-68
2023/03/14 11:54:08;;;;;;;1999.90;999.90;;;11.80;99.90;;;;;;5053665;28;20458;-68
2023/03/14 11:56:44;;;;;;;1999.90;999.90;;;12.00;99.90;;;;;;5053911;28;20488;-68
2023/03/14 11:59:17;;;;;;;1999.90;999.90;;;12.00;99.90;;;;;;5055909;28;20486;-68
2023/03/14 12:01:56;;;;;;;1999.90;999.90;;;11.90;99.90;;;;;;5055518;28;20447;-68
2023/03/14 12:04:38;;;;;;;1999.90;999.90;;;11.70;99.90;;;;;;5055038;28;20440;-68
2023/03/14 12:07:13;;;;;;;1999.90;999.90;;;11.60;99.90;;;;;;5055975;28;20464;-65